createdAt,value
2018-09-16T00:02:04.329Z,12.40
2018-09-16T00:04:36.085Z,12.30
2018-09-16T00:07:07.522Z,12.30
2018-09-16T00:09:37.928Z,12.30
2018-09-16T00:12:08.355Z,12.30
2018-09-16T00:14:38.650Z,12.30
2018-09-16T00:17:09.311Z,12.30
2018-09-16T00:19:39.757Z,12.30
2018-09-16T00:22:10.254Z,12.30
2018-09-16T00:24:40.569Z,12.20
2018-09-16T00:27:10.912Z,12.20
2018-09-16T00:29:41.191Z,12.10
2018-09-16T00:32:16.712Z,12.20
2018-09-16T00:34:47.592Z,12.20
2018-09-16T00:37:17.978Z,12.20
2018-09-16T00:39:48.719Z,12.20
2018-09-16T00:42:19.644Z,12.20
2018-09-16T00:44:50.718Z,12.20
2018-09-16T00:47:21.303Z,12.20
2018-09-16T00:49:51.597Z,12.30
2018-09-16T00:52:21.960Z,12.30
2018-09-16T00:54:52.333Z,12.30
2018-09-16T00:57:23.101Z,12.40
2018-09-16T00:59:53.459Z,12.30
2018-09-16T01:02:23.854Z,12.20
2018-09-16T01:04:54.257Z,12.20
2018-09-16T01:07:24.607Z,12.20
2018-09-16T01:09:55.005Z,12.10
2018-09-16T01:12:25.796Z,12.10
2018-09-16T01:14:56.277Z,12.10
2018-09-16T01:17:28.525Z,12.20
2018-09-16T01:19:59.307Z,12.10
2018-09-16T01:22:31.282Z,12.10
2018-09-16T01:25:03.030Z,12.20
2018-09-16T01:27:33.622Z,12.10
2018-09-16T01:30:04.312Z,12.10
2018-09-16T01:32:37.532Z,12.20
2018-09-16T01:35:07.791Z,12.00
2018-09-16T01:37:43.326Z,12.00
2018-09-16T01:40:14.369Z,12.00
2018-09-16T01:42:45.951Z,12.00
2018-09-16T01:45:16.382Z,11.90
2018-09-16T01:47:46.894Z,11.80
2018-09-16T01:50:17.360Z,11.80
2018-09-16T01:52:48.358Z,11.60
2018-09-16T01:55:19.454Z,11.70
2018-09-16T01:57:51.785Z,11.80
2018-09-16T02:00:23.804Z,11.80
2018-09-16T02:02:55.785Z,11.80
2018-09-16T02:05:27.461Z,11.80
2018-09-16T02:07:57.975Z,11.80
2018-09-16T02:10:28.361Z,11.80
2018-09-16T02:12:58.774Z,11.80
2018-09-16T02:15:29.178Z,11.80
2018-09-16T02:17:59.502Z,11.80
2018-09-16T02:20:29.892Z,11.80
2018-09-16T02:23:01.923Z,11.70
2018-09-16T02:25:32.460Z,11.80
2018-09-16T02:28:02.742Z,11.80
2018-09-16T02:30:33.247Z,11.80
2018-09-16T02:33:05.787Z,11.70
2018-09-16T02:35:38.652Z,11.70
2018-09-16T02:38:09.693Z,11.70
2018-09-16T02:40:42.749Z,11.70
2018-09-16T02:43:13.554Z,11.70
2018-09-16T02:45:45.757Z,11.60
2018-09-16T02:48:17.232Z,11.60
2018-09-16T02:50:48.585Z,11.60
2018-09-16T02:53:19.031Z,11.60
2018-09-16T02:55:50.159Z,11.50
2018-09-16T02:58:21.517Z,11.50
2018-09-16T03:00:51.966Z,11.50
2018-09-16T03:03:22.491Z,11.50
2018-09-16T03:05:54.210Z,11.50
2018-09-16T03:08:24.510Z,11.50
2018-09-16T03:10:54.887Z,11.60
2018-09-16T03:13:25.370Z,11.50
2018-09-16T03:15:55.763Z,11.50
2018-09-16T03:18:26.150Z,11.50
2018-09-16T03:20:56.992Z,11.50
2018-09-16T03:23:28.614Z,11.50
2018-09-16T03:25:59.416Z,11.40
2018-09-16T03:28:30.800Z,11.40
2018-09-16T03:31:01.111Z,11.40
2018-09-16T03:33:31.490Z,11.40
2018-09-16T03:36:01.863Z,11.40
2018-09-16T03:38:33.469Z,11.40
2018-09-16T03:41:04.982Z,11.40
2018-09-16T03:43:37.381Z,11.40
2018-09-16T03:46:08.747Z,11.40
2018-09-16T03:48:40.163Z,11.50
2018-09-16T03:51:11.599Z,11.40
2018-09-16T03:53:43.469Z,11.40
2018-09-16T03:56:14.766Z,11.40
2018-09-16T03:58:46.170Z,11.30
2018-09-16T04:01:16.945Z,11.30
2018-09-16T04:03:48.128Z,11.20
2018-09-16T04:06:19.455Z,11.20
2018-09-16T04:08:50.841Z,11.30
2018-09-16T04:11:22.425Z,11.30
2018-09-16T04:13:53.345Z,11.30
2018-09-16T04:16:24.794Z,11.20
2018-09-16T04:18:56.084Z,11.20
2018-09-16T04:21:26.443Z,11.10
2018-09-16T04:23:57.556Z,11.10
2018-09-16T04:26:28.358Z,11.10
2018-09-16T04:28:59.931Z,11.10
2018-09-16T04:31:30.306Z,11.10
2018-09-16T04:34:01.602Z,11.10
2018-09-16T04:36:32.679Z,11.00
2018-09-16T04:39:06.002Z,11.00
2018-09-16T04:41:38.998Z,10.90
2018-09-16T04:44:16.585Z,10.90
2018-09-16T04:50:21.411Z,10.90
2018-09-16T04:52:54.384Z,10.90
2018-09-16T04:55:27.021Z,10.90
2018-09-16T04:57:58.151Z,10.80
2018-09-16T05:00:29.950Z,10.90
2018-09-16T05:03:01.273Z,10.80
2018-09-16T05:05:32.854Z,10.70
2018-09-16T05:08:06.135Z,10.60
2018-09-16T05:10:38.634Z,10.70
2018-09-16T05:13:11.073Z,10.70
2018-09-16T05:19:03.663Z,10.80
2018-09-16T05:21:39.492Z,11.00
2018-09-16T05:27:17.532Z,11.00
2018-09-16T05:29:51.022Z,11.00
2018-09-16T05:32:22.244Z,11.00
2018-09-16T05:34:56.387Z,10.90
2018-09-16T05:37:28.454Z,11.00
2018-09-16T05:40:00.149Z,11.00
2018-09-16T05:42:32.706Z,11.00
2018-09-16T05:45:06.588Z,11.00
2018-09-16T05:47:37.027Z,11.00
2018-09-16T05:50:10.642Z,11.20
2018-09-16T05:52:43.883Z,11.20
2018-09-16T05:55:16.687Z,11.20
2018-09-16T05:57:48.456Z,11.00
2018-09-16T06:00:27.647Z,11.10
2018-09-16T06:03:00.531Z,11.20
2018-09-16T06:05:32.772Z,11.30
2018-09-16T06:10:52.639Z,11.70
2018-09-16T06:13:26.560Z,11.80
2018-09-16T06:15:59.058Z,12.00
2018-09-16T06:18:32.295Z,12.20
2018-09-16T06:21:02.973Z,12.30
2018-09-16T06:23:34.022Z,12.50
2018-09-16T06:26:04.998Z,12.70
2018-09-16T06:28:40.288Z,12.80
2018-09-16T06:31:15.076Z,13.00
2018-09-16T06:33:47.389Z,13.10
2018-09-16T06:36:19.888Z,13.20
2018-09-16T06:38:52.577Z,13.30
2018-09-16T06:41:25.041Z,13.50
2018-09-16T06:43:59.536Z,13.70
2018-09-16T06:46:31.170Z,13.70
2018-09-16T06:49:01.693Z,13.90
2018-09-16T06:51:32.313Z,14.10
2018-09-16T06:54:03.106Z,14.20
2018-09-16T06:56:34.969Z,14.30
2018-09-16T06:59:14.028Z,14.50
2018-09-16T07:01:45.482Z,14.60
2018-09-16T07:04:18.410Z,14.80
2018-09-16T07:06:49.159Z,15.10
2018-09-16T07:09:23.545Z,15.40
2018-09-16T07:11:56.102Z,15.60
2018-09-16T07:14:28.003Z,15.90
2018-09-16T07:17:00.422Z,16.20
2018-09-16T07:22:16.128Z,16.50
2018-09-16T07:24:48.227Z,16.80
2018-09-16T07:27:22.391Z,16.90
2018-09-16T07:29:57.153Z,17.10
2018-09-16T07:32:32.155Z,17.40
2018-09-16T07:35:15.336Z,17.60
2018-09-16T07:37:49.078Z,17.90
2018-09-16T07:40:24.193Z,18.20
2018-09-16T07:42:54.606Z,18.50
2018-09-16T07:45:25.047Z,18.80
2018-09-16T07:47:55.389Z,19.00
2018-09-16T07:50:26.321Z,19.30
2018-09-16T07:52:56.971Z,19.60
2018-09-16T07:55:27.539Z,19.80
2018-09-16T07:57:57.927Z,20.00
2018-09-16T08:00:28.455Z,20.20
2018-09-16T08:02:59.892Z,20.60
2018-09-16T08:05:36.495Z,20.80
2018-09-16T08:08:07.347Z,21.00
2018-09-16T08:10:40.497Z,21.20
2018-09-16T08:13:24.556Z,21.40
2018-09-16T08:15:55.606Z,21.70
2018-09-16T08:18:26.227Z,21.90
2018-09-16T08:20:56.848Z,22.10
2018-09-16T08:23:27.391Z,22.40
2018-09-16T08:25:57.778Z,22.80
2018-09-16T08:28:28.231Z,23.10
2018-09-16T08:30:58.512Z,23.30
2018-09-16T08:33:28.935Z,23.60
2018-09-16T08:35:59.527Z,23.90
2018-09-16T08:38:29.963Z,24.10
2018-09-16T08:41:00.295Z,24.50
2018-09-16T08:43:30.893Z,24.80
2018-09-16T08:46:01.184Z,25.20
2018-09-16T08:48:31.560Z,25.10
2018-09-16T08:51:01.969Z,25.30
2018-09-16T08:53:32.366Z,25.40
2018-09-16T08:56:02.722Z,25.60
2018-09-16T08:58:33.935Z,25.70
2018-09-16T09:01:04.231Z,26.00
2018-09-16T09:03:34.941Z,26.50
2018-09-16T09:06:05.909Z,26.80
2018-09-16T09:08:36.998Z,27.00
2018-09-16T09:11:07.539Z,27.00
2018-09-16T09:13:38.086Z,27.20
2018-09-16T09:16:08.354Z,27.20
2018-09-16T09:18:38.907Z,27.10
2018-09-16T09:21:09.793Z,27.20
2018-09-16T09:23:40.083Z,27.30
2018-09-16T09:26:10.346Z,27.50
2018-09-16T09:28:41.022Z,27.60
2018-09-16T09:31:11.246Z,27.90
2018-09-16T09:33:42.228Z,28.10
2018-09-16T09:36:12.618Z,28.00
2018-09-16T09:38:43.049Z,28.30
2018-09-16T09:41:13.488Z,28.60
2018-09-16T09:43:44.003Z,28.90
2018-09-16T09:46:20.849Z,28.90
2018-09-16T09:48:51.282Z,28.80
2018-09-16T09:51:21.641Z,28.70
2018-09-16T09:53:52.385Z,29.10
2018-09-16T09:56:22.696Z,29.60
2018-09-16T09:58:52.973Z,30.00
2018-09-16T10:01:23.197Z,30.30
2018-09-16T10:03:54.240Z,30.40
2018-09-16T10:06:24.718Z,30.60
2018-09-16T10:08:54.938Z,31.10
2018-09-16T10:11:25.201Z,31.00
2018-09-16T10:13:55.534Z,31.20
2018-09-16T10:16:25.894Z,31.30
2018-09-16T10:18:56.148Z,31.30
2018-09-16T10:21:26.523Z,31.60
2018-09-16T10:23:56.840Z,32.00
2018-09-16T10:26:27.179Z,32.50
2018-09-16T10:28:57.518Z,32.90
2018-09-16T10:31:27.972Z,32.70
2018-09-16T10:33:58.248Z,32.60
2018-09-16T10:36:28.724Z,32.50
2018-09-16T10:38:59.215Z,32.50
2018-09-16T10:41:29.589Z,32.60
2018-09-16T10:43:59.967Z,32.50
2018-09-16T10:46:30.312Z,32.80
2018-09-16T10:49:00.724Z,33.00
2018-09-16T10:51:31.094Z,33.00
2018-09-16T10:54:01.499Z,33.30
2018-09-16T10:56:31.897Z,33.00
2018-09-16T10:59:02.280Z,33.00
2018-09-16T11:01:32.754Z,32.90
2018-09-16T11:04:03.102Z,33.10
2018-09-16T11:06:33.980Z,33.00
2018-09-16T11:09:05.967Z,33.10
2018-09-16T11:11:36.983Z,32.70
2018-09-16T11:14:07.885Z,32.80
2018-09-16T11:16:38.618Z,32.80
2018-09-16T11:19:08.934Z,33.10
2018-09-16T11:21:39.789Z,33.60
2018-09-16T11:24:10.501Z,33.80
2018-09-16T11:26:42.096Z,33.80
2018-09-16T11:29:12.532Z,34.00
2018-09-16T11:31:43.437Z,34.10
2018-09-16T11:34:13.710Z,34.20
2018-09-16T11:36:44.007Z,34.60
2018-09-16T11:39:14.381Z,34.20
2018-09-16T11:41:45.027Z,34.30
2018-09-16T11:44:15.390Z,34.60
2018-09-16T11:46:53.806Z,34.80
2018-09-16T11:49:24.431Z,35.00
2018-09-16T11:52:05.170Z,35.10
2018-09-16T11:54:38.125Z,35.30
2018-09-16T11:57:11.788Z,35.10
2018-09-16T11:59:49.126Z,35.10
2018-09-16T12:02:23.889Z,35.60
2018-09-16T12:05:16.337Z,36.00
2018-09-16T12:07:46.588Z,36.50
2018-09-16T12:10:32.954Z,36.80
2018-09-16T12:13:08.619Z,37.10
2018-09-16T12:15:48.498Z,36.90
2018-09-16T12:18:35.847Z,36.90
2018-09-16T12:21:09.738Z,37.00
2018-09-16T12:23:42.102Z,36.90
2018-09-16T12:26:27.334Z,36.70
2018-09-16T12:29:01.355Z,37.10
2018-09-16T12:31:32.111Z,37.40
2018-09-16T12:34:02.551Z,37.80
2018-09-16T12:36:33.202Z,37.80
2018-09-16T12:39:06.751Z,38.00
2018-09-16T12:41:40.170Z,38.20
2018-09-16T12:44:13.440Z,38.60
2018-09-16T12:46:45.457Z,38.80
2018-09-16T12:49:29.653Z,38.70
2018-09-16T12:52:03.025Z,38.40
2018-09-16T12:54:36.001Z,38.40
2018-09-16T12:57:13.457Z,38.60
2018-09-16T12:59:50.163Z,39.40
2018-09-16T13:02:21.834Z,39.50
2018-09-16T13:04:52.418Z,39.60
2018-09-16T13:07:23.514Z,39.40
2018-09-16T13:09:54.021Z,38.90
2018-09-16T13:12:24.456Z,38.70
2018-09-16T13:14:54.959Z,38.60
2018-09-16T13:17:25.302Z,38.40
2018-09-16T13:19:55.763Z,38.60
2018-09-16T13:22:26.089Z,38.70
2018-09-16T13:24:56.408Z,38.70
2018-09-16T13:27:28.273Z,38.90
2018-09-16T13:29:59.253Z,38.90
2018-09-16T13:32:30.360Z,39.00
2018-09-16T13:35:00.803Z,39.10
2018-09-16T13:37:31.440Z,39.30
2018-09-16T13:40:01.889Z,39.10
2018-09-16T13:42:32.702Z,38.80
2018-09-16T13:45:03.125Z,39.20
2018-09-16T13:47:35.791Z,39.40
2018-09-16T13:50:07.049Z,39.30
2018-09-16T13:52:38.094Z,39.00
2018-09-16T13:55:08.622Z,39.30
2018-09-16T13:57:39.729Z,39.40
2018-09-16T14:00:10.302Z,39.40
2018-09-16T14:02:41.093Z,39.40
2018-09-16T14:05:11.331Z,39.50
2018-09-16T14:07:42.064Z,39.60
2018-09-16T14:10:12.950Z,39.90
2018-09-16T14:12:43.341Z,40.00
2018-09-16T14:15:13.918Z,39.60
2018-09-16T14:17:44.541Z,39.30
2018-09-16T14:20:38.617Z,38.70
2018-09-16T14:23:09.131Z,38.30
2018-09-16T14:25:48.606Z,37.90
2018-09-16T14:28:25.472Z,38.00
2018-09-16T14:30:57.459Z,38.30
2018-09-16T14:33:34.587Z,38.10
2018-09-16T14:36:08.598Z,38.60
2018-09-16T14:38:47.222Z,39.00
2018-09-16T14:41:22.291Z,39.20
2018-09-16T14:43:56.724Z,38.90
2018-09-16T14:46:28.720Z,38.20
2018-09-16T14:48:59.262Z,38.00
2018-09-16T14:51:30.777Z,38.20
2018-09-16T14:54:01.061Z,38.00
2018-09-16T14:56:31.471Z,37.80
2018-09-16T14:59:01.871Z,37.90
2018-09-16T15:01:32.170Z,37.50
2018-09-16T15:04:02.501Z,36.80
2018-09-16T15:06:32.861Z,36.20
2018-09-16T15:09:03.218Z,35.50
2018-09-16T15:11:33.931Z,34.60
2018-09-16T15:14:04.304Z,33.90
2018-09-16T15:16:35.094Z,33.00
2018-09-16T15:19:05.423Z,32.50
2018-09-16T15:21:36.014Z,32.20
2018-09-16T15:24:06.478Z,32.50
2018-09-16T15:26:36.917Z,32.90
2018-09-16T15:29:07.494Z,32.90
2018-09-16T15:31:38.589Z,32.80
2018-09-16T15:34:08.978Z,32.50
2018-09-16T15:36:39.682Z,32.30
2018-09-16T15:39:10.982Z,32.00
2018-09-16T15:41:41.428Z,31.60
2018-09-16T15:44:12.158Z,31.20
2018-09-16T15:46:43.654Z,30.90
2018-09-16T15:49:14.025Z,30.60
2018-09-16T15:51:44.542Z,30.50
2018-09-16T15:54:14.851Z,30.40
2018-09-16T15:56:45.157Z,30.20
2018-09-16T15:59:15.499Z,30.10
2018-09-16T16:01:45.913Z,29.80
2018-09-16T16:04:16.678Z,29.60
2018-09-16T16:06:46.938Z,29.40
2018-09-16T16:09:17.763Z,29.10
2018-09-16T16:11:48.068Z,28.90
2018-09-16T16:14:18.642Z,28.70
2018-09-16T16:16:55.733Z,28.40
2018-09-16T16:19:26.046Z,28.30
2018-09-16T16:21:56.350Z,28.10
2018-09-16T16:24:27.333Z,27.90
2018-09-16T16:26:57.790Z,27.80
2018-09-16T16:29:28.161Z,27.70
2018-09-16T16:31:58.484Z,27.50
2018-09-16T16:34:29.054Z,27.50
2018-09-16T16:36:59.677Z,27.30
2018-09-16T16:39:30.410Z,27.10
2018-09-16T16:42:01.262Z,26.90
2018-09-16T16:44:31.978Z,26.70
2018-09-16T16:47:02.522Z,26.50
2018-09-16T16:49:33.399Z,26.10
2018-09-16T16:52:03.904Z,25.60
2018-09-16T16:54:34.248Z,25.30
2018-09-16T16:57:04.665Z,24.90
2018-09-16T16:59:35.721Z,24.60
2018-09-16T17:02:06.294Z,24.50
2018-09-16T17:04:36.753Z,24.40
2018-09-16T17:07:07.438Z,24.20
2018-09-16T17:09:38.106Z,24.10
2018-09-16T17:12:09.394Z,24.00
2018-09-16T17:14:39.642Z,23.90
2018-09-16T17:17:10.009Z,23.80
2018-09-16T17:19:40.870Z,23.60
2018-09-16T17:22:14.606Z,23.50
2018-09-16T17:24:45.213Z,23.40
2018-09-16T17:27:16.089Z,23.30
2018-09-16T17:29:46.681Z,23.20
2018-09-16T17:32:17.090Z,23.10
2018-09-16T17:34:47.423Z,23.00
2018-09-16T17:37:17.720Z,22.80
2018-09-16T17:39:51.406Z,22.70
2018-09-16T17:42:21.876Z,22.50
2018-09-16T17:44:52.192Z,22.40
2018-09-16T17:47:22.567Z,22.40
2018-09-16T17:49:53.378Z,22.30
2018-09-16T17:52:23.901Z,22.20
2018-09-16T17:54:54.931Z,22.10
2018-09-16T17:57:26.390Z,21.90
2018-09-16T17:59:57.422Z,21.70
2018-09-16T18:02:29.388Z,21.70
2018-09-16T18:05:00.063Z,21.60
2018-09-16T18:07:30.742Z,21.50
2018-09-16T18:10:01.019Z,21.50
2018-09-16T18:12:31.828Z,21.50
2018-09-16T18:15:02.282Z,21.40
2018-09-16T18:17:32.890Z,21.30
2018-09-16T18:20:03.312Z,21.30
2018-09-16T18:22:34.365Z,21.10
2018-09-16T18:25:05.288Z,21.00
2018-09-16T18:27:36.730Z,20.80
2018-09-16T18:30:07.537Z,20.70
2018-09-16T18:32:39.314Z,20.60
2018-09-16T18:35:09.715Z,20.60
2018-09-16T18:37:45.402Z,20.60
2018-09-16T18:40:21.085Z,20.50
2018-09-16T18:42:53.288Z,20.40
2018-09-16T18:45:25.824Z,20.40
2018-09-16T18:47:58.776Z,20.40
2018-09-16T18:50:29.068Z,20.30
2018-09-16T18:52:59.365Z,20.30
2018-09-16T18:55:36.036Z,20.30
2018-09-16T18:58:19.022Z,20.20
2018-09-16T19:00:51.558Z,20.10
2018-09-16T19:03:29.719Z,20.00
2018-09-16T19:06:02.548Z,19.80
2018-09-16T19:08:37.929Z,19.70
2018-09-16T19:11:16.519Z,19.70
2018-09-16T19:13:48.447Z,19.60
2018-09-16T19:16:19.742Z,19.60
2018-09-16T19:18:51.293Z,19.60
2018-09-16T19:21:22.265Z,19.50
2018-09-16T19:23:54.754Z,19.30
2018-09-16T19:26:46.830Z,19.30
2018-09-16T19:29:22.167Z,19.40
2018-09-16T19:31:53.581Z,19.40
2018-09-16T19:34:25.919Z,19.30
2018-09-16T19:36:56.463Z,19.40
2018-09-16T19:39:27.279Z,19.30
2018-09-16T19:41:58.080Z,19.30
2018-09-16T19:44:28.874Z,19.20
2018-09-16T19:46:59.535Z,19.20
2018-09-16T19:49:30.005Z,19.30
2018-09-16T19:52:05.499Z,19.30
2018-09-16T19:54:40.853Z,19.10
2018-09-16T19:57:11.532Z,19.10
2018-09-16T19:59:42.038Z,19.10
2018-09-16T20:02:13.428Z,19.10
2018-09-16T20:04:45.997Z,19.10
2018-09-16T20:07:16.644Z,19.10
2018-09-16T20:09:50.243Z,19.00
2018-09-16T20:12:21.209Z,19.00
2018-09-16T20:14:52.051Z,18.90
2018-09-16T20:17:22.752Z,19.00
2018-09-16T20:19:56.280Z,19.00
2018-09-16T20:22:26.990Z,19.00
2018-09-16T20:25:11.487Z,19.10
2018-09-16T20:27:42.198Z,18.90
2018-09-16T20:30:12.553Z,18.90
2018-09-16T20:32:44.075Z,18.80
2018-09-16T20:35:16.471Z,18.80
2018-09-16T20:37:53.204Z,18.70
2018-09-16T20:40:28.565Z,18.60
2018-09-16T20:43:24.880Z,18.60
2018-09-16T20:46:17.754Z,18.60
2018-09-16T20:48:49.581Z,18.40
2018-09-16T20:51:21.097Z,18.40
2018-09-16T20:53:52.390Z,18.30
2018-09-16T20:56:22.785Z,18.30
2018-09-16T20:58:53.926Z,18.20
2018-09-16T21:01:24.630Z,18.30
2018-09-16T21:03:54.996Z,18.30
2018-09-16T21:06:25.767Z,18.30
2018-09-16T21:08:57.001Z,18.20
2018-09-16T21:11:29.155Z,18.20
2018-09-16T21:14:00.414Z,18.00
2018-09-16T21:16:32.783Z,18.00
2018-09-16T21:19:04.516Z,18.00
2018-09-16T21:21:36.056Z,18.00
2018-09-16T21:24:06.378Z,17.90
2018-09-16T21:26:37.226Z,18.00
2018-09-16T21:29:07.855Z,17.90
2018-09-16T21:31:38.230Z,17.80
2018-09-16T21:34:08.593Z,17.80
2018-09-16T21:36:39.901Z,17.70
2018-09-16T21:39:14.400Z,17.70
2018-09-16T21:41:45.574Z,17.70
2018-09-16T21:44:16.152Z,17.70
2018-09-16T21:46:46.913Z,17.70
2018-09-16T21:50:21.111Z,17.60
2018-09-16T21:52:55.151Z,17.60
2018-09-16T21:55:26.121Z,17.50
2018-09-16T21:57:56.690Z,17.40
2018-09-16T22:00:26.954Z,17.40
2018-09-16T22:02:57.985Z,17.40
2018-09-16T22:05:28.386Z,17.50
2018-09-16T22:08:25.854Z,17.40
2018-09-16T22:10:57.505Z,17.40
2018-09-16T22:13:28.688Z,17.30
2018-09-16T22:15:58.944Z,17.30
2018-09-16T22:18:29.370Z,17.30
2018-09-16T22:20:59.797Z,17.20
2018-09-16T22:23:30.208Z,17.30
2018-09-16T22:26:00.581Z,17.20
2018-09-16T22:28:32.252Z,17.10
2018-09-16T22:31:03.378Z,17.10
2018-09-16T22:33:35.543Z,17.10
2018-09-16T22:36:06.098Z,17.00
2018-09-16T22:38:36.940Z,17.00
2018-09-16T22:41:07.572Z,16.90
2018-09-16T22:43:38.709Z,16.90
2018-09-16T22:46:09.706Z,16.90
2018-09-16T22:48:40.291Z,16.80
2018-09-16T22:51:10.969Z,16.80
2018-09-16T22:53:41.353Z,16.70
2018-09-16T22:56:14.237Z,16.70
2018-09-16T22:58:44.585Z,16.70
2018-09-16T23:01:15.135Z,16.60
2018-09-16T23:03:46.639Z,16.50
2018-09-16T23:06:17.551Z,16.50
2018-09-16T23:08:56.481Z,16.50
2018-09-16T23:11:26.941Z,16.40
2018-09-16T23:13:59.457Z,16.40
2018-09-16T23:16:31.162Z,16.30
2018-09-16T23:19:01.931Z,16.30
2018-09-16T23:21:32.583Z,16.30
2018-09-16T23:24:02.919Z,16.30
2018-09-16T23:26:34.020Z,16.30
2018-09-16T23:29:04.877Z,16.30
2018-09-16T23:31:35.331Z,16.20
2018-09-16T23:34:05.995Z,16.20
2018-09-16T23:36:37.157Z,16.20
2018-09-16T23:39:10.123Z,16.20
2018-09-16T23:41:41.194Z,16.10
2018-09-16T23:44:11.550Z,16.10
2018-09-16T23:46:42.340Z,16.10
2018-09-16T23:49:12.902Z,16.10
2018-09-16T23:51:43.581Z,16.20
2018-09-16T23:54:13.907Z,16.10
2018-09-16T23:56:44.729Z,16.10
2018-09-16T23:59:15.013Z,16.00
